Time;durP1;ratioP1;P1;durP2;ratioP2;P2;SDS_P1;SDS_P2;PMS_P1;PMS_P2;Temp;Humidity;BMP_temperature;BMP_pressure;BME280_temperature;BME280_humidity;BME280_pressure;Samples;Min_cycle;Max_cycle;Signal;HPM_P1;HPM_P2
2023/05/26 00:00:09;;;;;;;1.13;0.82;;;;;;;15.42;52.11;102144.16;5159444;28;20034;-88
2023/05/26 00:03:03;;;;;;;1.55;1.08;;;;;;;15.46;51.22;102148.47;5153520;28;20037;-90
2023/05/26 00:05:54;;;;;;;5.90;2.10;;;;;;;15.45;51.87;102148.50;5153337;28;20033;-87
2023/05/26 00:08:44;;;;;;;0.93;0.93;;;;;;;15.45;51.27;102149.38;5171967;28;20281;-89
2023/05/26 00:11:35;;;;;;;2.95;2.22;;;;;;;15.45;51.02;102143.22;5176633;28;20027;-87
2023/05/26 00:14:26;;;;;;;7.40;1.38;;;;;;;15.45;51.02;102145.84;5171002;28;20058;-88
2023/05/26 00:17:17;;;;;;;0.63;0.63;;;;;;;15.33;51.70;102150.53;5157040;28;20031;-89
2023/05/26 00:20:09;;;;;;;2.40;1.00;;;;;;;15.38;50.95;102153.94;5149826;28;20482;-88
2023/05/26 00:23:00;;;;;;;0.85;0.85;;;;;;;15.38;50.81;102151.31;5163900;28;20046;-88
2023/05/26 00:25:51;;;;;;;4.18;2.28;;;;;;;15.33;51.56;102161.09;5147288;28;21250;-89
2023/05/26 00:28:41;;;;;;;2.17;1.80;;;;;;;15.31;51.38;102155.00;5170909;28;20619;-89
2023/05/26 00:31:32;;;;;;;1.00;0.90;;;;;;;15.25;51.17;102160.41;5152719;28;20073;-89
2023/05/26 00:34:23;;;;;;;0.40;0.40;;;;;;;15.19;51.21;102157.94;5133264;28;20133;-89
2023/05/26 00:37:14;;;;;;;0.50;0.50;;;;;;;15.21;51.17;102156.13;5152922;28;20046;-86
2023/05/26 00:40:06;;;;;;;1.80;1.50;;;;;;;15.13;51.79;102161.59;5167949;28;20014;-89
2023/05/26 00:42:56;;;;;;;0.82;0.82;;;;;;;15.08;51.56;102164.31;5152641;28;20095;-88
2023/05/26 00:45:47;;;;;;;0.82;0.82;;;;;;;14.87;52.26;102162.19;5162002;28;20035;-88
2023/05/26 00:48:38;;;;;;;0.30;0.30;;;;;;;15.01;51.51;102167.16;5168902;28;20038;-89
2023/05/26 00:51:29;;;;;;;0.20;0.20;;;;;;;14.77;52.44;102164.16;5164785;28;20287;-89
2023/05/26 00:54:20;;;;;;;1.30;1.10;;;;;;;14.66;52.21;102164.41;5164294;28;20030;-88
2023/05/26 00:57:11;;;;;;;12.25;2.50;;;;;;;14.83;51.67;102160.53;5156484;28;20026;-89
2023/05/26 01:00:03;;;;;;;1.17;1.17;;;;;;;14.87;51.69;102162.19;5157798;28;20014;-88
2023/05/26 01:02:57;;;;;;;1.02;0.93;;;;;;;14.84;51.76;102160.47;5137801;28;20045;-88
2023/05/26 01:05:47;;;;;;;3.10;1.08;;;;;;;14.79;51.66;102163.22;5128554;28;20766;-88
2023/05/26 01:08:38;;;;;;;0.40;0.40;;;;;;;14.85;51.94;102163.97;5130143;28;20582;-89
2023/05/26 01:12:07;;;;;;;6.10;2.80;;;;;;;14.76;51.98;102162.44;5141635;28;20050;-88
2023/05/26 01:15:10;;;;;;;0.80;0.80;;;;;;;14.76;52.16;102163.28;5146030;28;20046;-87
2023/05/26 01:18:31;;;;;;;2.38;1.20;;;;;;;14.76;51.74;102162.44;5132556;28;20459;-87
2023/05/26 01:21:29;;;;;;;2.88;1.40;;;;;;;14.72;52.06;102166.00;5165989;28;20076;-88
2023/05/26 01:24:33;;;;;;;1.92;1.35;;;;;;;14.72;51.99;102169.56;5175044;28;20018;-88
2023/05/26 01:27:42;;;;;;;0.70;0.70;;;;;;;14.60;53.00;102168.00;5176022;28;20042;-88
2023/05/26 01:30:35;;;;;;;6.32;1.77;;;;;;;14.55;52.62;102169.00;5168206;28;20041;-88
2023/05/26 01:33:26;;;;;;;2.10;1.48;;;;;;;14.37;53.59;102171.09;5185838;28;20252;-88
2023/05/26 01:36:17;;;;;;;0.63;0.63;;;;;;;14.44;53.52;102169.22;5166347;28;20053;-89
2023/05/26 01:39:08;;;;;;;0.25;0.25;;;;;;;14.07;54.15;102173.44;5158014;28;20026;-88
2023/05/26 01:42:21;;;;;;;0.30;0.30;;;;;;;14.16;53.26;102173.28;5159681;28;20034;-89
2023/05/26 01:45:16;;;;;;;0.80;0.75;;;;;;;14.21;53.15;102172.31;5170189;28;20030;-89
2023/05/26 01:48:08;;;;;;;2.08;1.58;;;;;;;14.07;53.80;102176.09;5170209;28;20027;-88
2023/05/26 01:51:04;;;;;;;1.00;0.95;;;;;;;14.17;53.59;102169.72;5150870;28;20026;-89
2023/05/26 01:54:00;;;;;;;0.30;0.30;;;;;;;14.14;53.08;102175.06;5150285;28;20055;-88
2023/05/26 01:56:56;;;;;;;1.83;1.67;;;;;;;14.05;53.37;102174.38;5163733;28;20039;-87
2023/05/26 01:59:47;;;;;;;2.28;1.15;;;;;;;14.05;53.11;102183.16;5165921;28;20120;-88
2023/05/26 02:02:38;;;;;;;0.35;0.35;;;;;;;14.04;52.83;102181.41;5152336;28;20041;-88
2023/05/26 02:05:30;;;;;;;7.57;1.85;;;;;;;13.69;54.30;102188.16;5158431;28;20030;-88
2023/05/26 02:08:22;;;;;;;0.40;0.40;;;;;;;13.76;53.26;102183.66;5153275;28;20046;-89
2023/05/26 02:11:15;;;;;;;1.10;1.00;;;;;;;13.70;54.88;102184.63;5153889;28;20031;-89
2023/05/26 02:14:06;;;;;;;0.40;0.40;;;;;;;13.78;53.44;102177.47;5162022;28;20053;-88
2023/05/26 02:16:57;;;;;;;0.30;0.30;;;;;;;13.62;55.33;102175.97;5161615;28;20462;-89
2023/05/26 02:19:48;;;;;;;0.52;0.52;;;;;;;13.35;56.15;102172.84;5156933;28;20034;-89
2023/05/26 02:22:39;;;;;;;0.95;0.95;;;;;;;13.49;54.59;102176.19;5166337;28;20045;-88
2023/05/26 02:25:30;;;;;;;2.20;1.48;;;;;;;13.59;54.08;102181.31;5155098;28;20033;-88
2023/05/26 02:28:21;;;;;;;0.20;0.20;;;;;;;13.55;54.28;102183.16;5138861;28;20042;-88
2023/05/26 02:31:12;;;;;;;1.70;1.00;;;;;;;13.50;54.50;102182.31;5150938;28;20410;-89
2023/05/26 02:34:04;;;;;;;1.23;0.88;;;;;;;13.58;53.94;102180.44;5167698;28;20030;-88
2023/05/26 02:36:55;;;;;;;1.08;0.63;;;;;;;13.38;54.42;102178.09;5190642;28;20037;-89
2023/05/26 02:39:46;;;;;;;0.47;0.47;;;;;;;13.17;54.97;102185.44;5163569;28;20567;-88
2023/05/26 02:42:37;;;;;;;0.75;0.70;;;;;;;13.41;54.73;102175.44;5165276;28;20034;-88
2023/05/26 02:45:28;;;;;;;0.75;0.75;;;;;;;13.29;55.22;102172.94;5166941;28;20400;-89
2023/05/26 02:48:18;;;;;;;2.70;0.88;;;;;;;13.37;54.71;102177.22;5168719;28;20038;-88
2023/05/26 02:51:10;;;;;;;1.00;0.82;;;;;;;13.32;53.86;102170.28;5168891;28;20241;-88
2023/05/26 02:54:01;;;;;;;4.38;1.70;;;;;;;13.20;55.06;102173.97;5150268;28;20026;-89
2023/05/26 02:56:52;;;;;;;2.50;1.60;;;;;;;13.12;55.09;102176.69;5150804;28;20070;-86
2023/05/26 02:59:42;;;;;;;0.90;0.88;;;;;;;13.16;54.81;102172.25;5154678;28;20194;-88
2023/05/26 03:02:33;;;;;;;3.22;0.95;;;;;;;13.29;54.42;102172.94;5168549;28;20089;-89
2023/05/26 03:05:24;;;;;;;1.85;1.20;;;;;;;13.27;54.58;102169.47;5156560;28;20034;-88
2023/05/26 03:08:15;;;;;;;0.32;0.32;;;;;;;13.20;55.23;102164.28;5157676;28;20035;-88
2023/05/26 03:11:06;;;;;;;0.50;0.50;;;;;;;13.16;53.88;102170.50;5163829;28;20034;-88
2023/05/26 03:13:57;;;;;;;1.60;1.50;;;;;;;13.18;55.66;102171.34;5161990;28;20092;-88
2023/05/26 03:16:51;;;;;;;8.60;2.63;;;;;;;13.22;54.73;102169.56;5176340;28;20514;-88
2023/05/26 03:19:43;;;;;;;1.20;1.05;;;;;;;13.22;54.15;102172.19;5152701;28;20112;-88
2023/05/26 03:22:34;;;;;;;1.05;1.00;;;;;;;13.12;55.61;102171.44;5169122;28;20038;-88
2023/05/26 03:25:25;;;;;;;0.80;0.80;;;;;;;13.12;53.98;102183.75;5177933;28;20049;-89
2023/05/26 03:28:16;;;;;;;0.30;0.30;;;;;;;12.93;55.98;102176.09;5154279;28;20117;-87
2023/05/26 03:31:06;;;;;;;0.75;0.75;;;;;;;12.94;55.09;102177.84;5132596;28;20042;-87
2023/05/26 03:33:57;;;;;;;2.78;0.60;;;;;;;12.97;55.19;102182.19;5157280;28;20080;-89
2023/05/26 03:36:49;;;;;;;2.50;1.10;;;;;;;13.00;54.64;102190.06;5161825;28;20041;-88
2023/05/26 03:39:39;;;;;;;1.00;1.00;;;;;;;12.94;54.48;102184.84;5159918;28;20034;-88
2023/05/26 03:42:30;;;;;;;1.08;0.70;;;;;;;12.86;54.59;102184.97;5153122;28;20042;-88
2023/05/26 03:45:21;;;;;;;5.60;1.30;;;;;;;12.79;55.34;102188.59;5160881;28;20120;-88
2023/05/26 03:48:14;;;;;;;1.55;0.93;;;;;;;12.85;55.38;102189.34;5169261;28;20100;-89
2023/05/26 03:51:05;;;;;;;20.33;1.80;;;;;;;12.81;55.78;102195.56;5176808;28;20011;-89
2023/05/26 03:53:56;;;;;;;5.47;1.40;;;;;;;12.85;55.36;102194.63;5168697;28;20586;-88
2023/05/26 03:56:46;;;;;;;16.75;2.28;;;;;;;12.75;55.35;102193.88;5165546;28;20287;-87
2023/05/26 03:59:37;;;;;;;2.30;2.15;;;;;;;12.79;55.36;102194.72;5170829;28;20478;-88
2023/05/26 04:02:28;;;;;;;1.08;1.08;;;;;;;12.50;57.56;102190.69;5152109;28;20118;-88
2023/05/26 04:05:19;;;;;;;4.68;1.42;;;;;;;12.51;56.39;102192.44;5169154;28;20033;-88
2023/05/26 04:08:10;;;;;;;1.20;1.17;;;;;;;12.39;57.05;102200.47;5152682;28;20040;-88
2023/05/26 04:11:01;;;;;;;0.90;0.85;;;;;;;12.44;56.65;102203.91;5163157;28;20025;-87
2023/05/26 04:13:51;;;;;;;0.77;0.52;;;;;;;12.04;58.09;102205.22;5150513;28;20113;-88
2023/05/26 04:16:42;;;;;;;1.08;0.98;;;;;;;12.07;59.75;102205.16;5152711;28;20037;-88
2023/05/26 04:19:33;;;;;;;0.63;0.63;;;;;;;12.28;58.25;102204.06;5157298;28;20023;-89
2023/05/26 04:22:24;;;;;;;1.63;0.88;;;;;;;12.21;58.67;102202.41;5161370;28;20125;-89
2023/05/26 04:25:15;;;;;;;23.00;5.05;;;;;;;12.22;58.57;102200.66;5164879;28;20017;-88
2023/05/26 04:28:07;;;;;;;1.45;1.35;;;;;;;12.20;57.87;102213.81;5149858;28;20034;-89
2023/05/26 04:31:00;;;;;;;1.00;1.00;;;;;;;12.02;60.17;102206.97;5158865;28;20030;-89
2023/05/26 04:33:52;;;;;;;0.40;0.40;;;;;;;11.87;61.30;102202.69;5159390;28;20141;-88
2023/05/26 04:36:43;;;;;;;2.67;1.33;;;;;;;11.76;61.54;102215.06;5154097;28;20037;-87
2023/05/26 04:39:33;;;;;;;0.55;0.55;;;;;;;12.00;59.65;102213.13;5154472;28;20107;-89
2023/05/26 04:42:24;;;;;;;0.75;0.75;;;;;;;11.82;60.88;102210.59;5173782;28;20115;-88
2023/05/26 04:45:15;;;;;;;2.13;2.00;;;;;;;11.89;60.19;102214.06;5185992;28;20227;-89
2023/05/26 04:48:06;;;;;;;2.40;0.88;;;;;;;11.66;62.09;102224.75;5160846;28;20895;-88
2023/05/26 04:50:57;;;;;;;1.10;1.10;;;;;;;11.74;61.08;102219.47;5165632;28;20046;-89
2023/05/26 04:53:48;;;;;;;1.52;1.45;;;;;;;11.80;61.88;102217.66;5160296;28;20026;-88
2023/05/26 04:56:39;;;;;;;0.70;0.70;;;;;;;11.96;60.27;102218.38;5162186;28;20037;-89
2023/05/26 04:59:30;;;;;;;5.05;2.08;;;;;;;11.84;61.47;102222.88;5172400;28;20030;-87
2023/05/26 05:02:20;;;;;;;1.70;1.60;;;;;;;11.62;62.91;102216.03;5170249;28;20045;-88
2023/05/26 05:05:11;;;;;;;5.47;1.52;;;;;;;11.77;61.31;102220.31;5189171;28;20405;-88
2023/05/26 05:08:02;;;;;;;0.82;0.82;;;;;;;11.39;64.93;102216.22;5162187;28;20054;-88
2023/05/26 05:10:53;;;;;;;1.40;1.30;;;;;;;11.52;64.00;102222.25;5152930;28;20034;-88
2023/05/26 05:13:44;;;;;;;1.88;1.73;;;;;;;11.67;62.37;102218.63;5168127;28;20056;-88
2023/05/26 05:16:34;;;;;;;3.22;1.65;;;;;;;11.53;63.93;102225.75;5156803;28;20068;-89
2023/05/26 05:19:26;;;;;;;1.60;1.25;;;;;;;11.11;67.07;102223.38;5174843;28;20450;-87
2023/05/26 05:22:17;;;;;;;1.77;1.67;;;;;;;11.55;64.53;102224.84;5162100;28;20490;-88
2023/05/26 05:25:08;;;;;;;0.95;0.95;;;;;;;11.55;64.04;102230.09;5172293;28;20021;-89
2023/05/26 05:27:59;;;;;;;3.63;2.50;;;;;;;11.50;63.67;102230.13;5170828;28;20031;-89
2023/05/26 05:30:50;;;;;;;0.77;0.77;;;;;;;11.37;65.71;102228.47;5155260;28;20185;-89
2023/05/26 05:33:42;;;;;;;3.78;1.73;;;;;;;11.19;66.82;102229.47;5153855;28;20042;-88
2023/05/26 05:36:33;;;;;;;1.52;1.42;;;;;;;11.14;66.68;102234.75;5153360;28;20038;-87
2023/05/26 05:39:24;;;;;;;1.02;0.90;;;;;;;11.11;67.19;102237.38;5173171;28;20026;-89
2023/05/26 05:42:15;;;;;;;0.70;0.70;;;;;;;11.33;65.79;102246.03;5150819;28;20038;-88
2023/05/26 05:45:06;;;;;;;2.28;1.05;;;;;;;11.63;64.42;102245.84;5173505;28;20057;-89
2023/05/26 05:47:57;;;;;;;1.55;1.45;;;;;;;11.57;64.99;102249.38;5176996;28;20045;-89
2023/05/26 05:50:48;;;;;;;2.25;1.27;;;;;;;11.56;64.96;102255.50;5168451;28;20033;-88
2023/05/26 05:53:38;;;;;;;3.60;1.98;;;;;;;11.57;64.80;102257.25;5157662;28;20410;-88
2023/05/26 05:56:29;;;;;;;11.55;1.35;;;;;;;11.53;65.68;102266.03;5180474;28;20117;-89
2023/05/26 05:59:20;;;;;;;2.50;1.73;;;;;;;11.53;65.87;102259.91;5156895;28;20629;-89
2023/05/26 06:02:11;;;;;;;3.63;2.38;;;;;;;11.52;66.48;102272.19;5166032;28;20098;-87
2023/05/26 06:05:02;;;;;;;1.25;1.25;;;;;;;11.57;66.16;102272.19;5160883;28;20026;-86
2023/05/26 06:07:53;;;;;;;1.25;1.15;;;;;;;11.61;65.53;102268.63;5170038;28;20037;-87
2023/05/26 06:10:44;;;;;;;5.97;3.13;;;;;;;11.42;66.76;102288.91;5189760;28;20030;-87
2023/05/26 06:13:34;;;;;;;2.03;1.85;;;;;;;11.40;67.25;102280.13;5191219;28;20105;-87
2023/05/26 06:16:25;;;;;;;2.85;1.05;;;;;;;11.67;65.12;102281.72;5185490;28;20022;-87
2023/05/26 06:19:16;;;;;;;1.88;1.77;;;;;;;11.64;65.52;102290.50;5172949;28;20045;-87
2023/05/26 06:22:07;;;;;;;1.73;1.48;;;;;;;11.69;65.68;102287.84;5169662;28;20071;-87
2023/05/26 06:24:57;;;;;;;2.00;1.85;;;;;;;11.45;67.25;102284.50;5169449;28;20034;-87
2023/05/26 06:27:48;;;;;;;0.75;0.75;;;;;;;11.62;66.40;102287.00;5159239;28;20048;-87
2023/05/26 06:30:39;;;;;;;16.40;4.10;;;;;;;11.84;66.11;102281.63;5150184;28;20779;-87
2023/05/26 06:33:30;;;;;;;3.20;2.90;;;;;;;12.08;63.98;102279.72;5147610;28;20695;-87
2023/05/26 06:36:21;;;;;;;1.65;1.15;;;;;;;11.72;66.19;102277.31;5150057;28;20052;-87
2023/05/26 06:39:12;;;;;;;2.30;2.10;;;;;;;11.85;65.96;102278.13;5166370;28;20022;-87
2023/05/26 06:42:03;;;;;;;4.40;1.92;;;;;;;12.10;64.66;102288.47;5173298;28;20137;-87
2023/05/26 06:44:54;;;;;;;1.33;1.27;;;;;;;12.32;63.51;102277.75;5174020;28;20041;-87
2023/05/26 06:47:45;;;;;;;3.75;1.00;;;;;;;12.13;64.55;102293.69;5175299;28;20041;-87
2023/05/26 06:50:35;;;;;;;1.38;1.27;;;;;;;12.02;65.00;102290.28;5145157;28;20022;-88
2023/05/26 06:53:26;;;;;;;0.98;0.95;;;;;;;12.16;64.86;102293.69;5160218;28;20050;-87
2023/05/26 06:56:17;;;;;;;1.05;0.98;;;;;;;12.01;65.88;102293.81;5157737;28;20039;-86
2023/05/26 06:59:08;;;;;;;7.28;2.22;;;;;;;12.39;63.29;102296.09;5158095;28;20035;-87
2023/05/26 07:01:58;;;;;;;0.85;0.85;;;;;;;12.34;64.53;102303.16;5180649;28;20063;-87
2023/05/26 07:04:49;;;;;;;1.13;1.00;;;;;;;12.62;63.76;102302.00;5166968;28;20431;-86
2023/05/26 07:07:40;;;;;;;1.75;1.25;;;;;;;12.51;64.01;102304.75;5173626;28;20046;-89
2023/05/26 07:10:31;;;;;;;1.13;1.13;;;;;;;12.54;63.62;102302.09;5170348;28;20026;-86
2023/05/26 07:13:22;;;;;;;1.23;1.20;;;;;;;12.46;64.46;102306.56;5172512;28;20046;-87
2023/05/26 07:16:13;;;;;;;0.68;0.68;;;;;;;12.74;63.24;102307.16;5169555;28;20546;-88
2023/05/26 07:19:03;;;;;;;15.00;3.40;;;;;;;12.67;63.29;102305.50;5173330;28;20025;-87
2023/05/26 07:21:54;;;;;;;3.30;2.15;;;;;;;12.72;63.21;102309.81;5176953;28;20044;-87
2023/05/26 07:24:45;;;;;;;2.08;1.88;;;;;;;12.40;64.80;102312.75;5151713;28;20458;-85
2023/05/26 07:27:36;;;;;;;3.42;2.38;;;;;;;12.53;63.65;102319.66;5178816;28;20117;-88
2023/05/26 07:30:26;;;;;;;0.80;0.68;;;;;;;12.69;63.60;102324.75;5177970;28;20034;-86
2023/05/26 07:33:18;;;;;;;7.70;3.63;;;;;;;12.62;64.38;102317.81;5152166;28;20042;-87
2023/05/26 07:36:08;;;;;;;2.63;2.13;;;;;;;12.65;63.59;102317.78;5152978;28;20023;-87
2023/05/26 07:38:59;;;;;;;1.83;1.23;;;;;;;12.38;64.87;102325.06;5158137;28;20562;-86
2023/05/26 07:41:50;;;;;;;6.03;2.60;;;;;;;12.70;63.39;102326.50;5148698;28;20286;-86
2023/05/26 07:44:41;;;;;;;0.77;0.77;;;;;;;12.58;64.25;102309.06;5168856;28;20026;-87
2023/05/26 07:47:32;;;;;;;3.40;1.95;;;;;;;12.77;63.87;102316.78;5182295;28;20045;-86
2023/05/26 07:50:23;;;;;;;8.40;0.85;;;;;;;12.63;64.02;102314.28;5168579;28;20019;-87
2023/05/26 07:53:13;;;;;;;1.60;1.25;;;;;;;12.63;64.64;102311.66;5174602;28;20041;-87
2023/05/26 07:56:04;;;;;;;2.95;2.13;;;;;;;12.87;63.18;102315.81;5175425;28;20338;-87
2023/05/26 07:58:55;;;;;;;2.55;2.35;;;;;;;12.73;63.81;102314.16;5158297;28;20033;-87
2023/05/26 08:01:46;;;;;;;2.15;1.20;;;;;;;12.87;63.22;102318.44;5148430;28;20146;-88
2023/05/26 08:04:37;;;;;;;2.95;1.50;;;;;;;13.05;62.55;102312.06;5144441;28;20053;-87
2023/05/26 08:07:28;;;;;;;4.30;1.67;;;;;;;13.12;62.31;102321.66;5166611;28;20046;-87
2023/05/26 08:10:19;;;;;;;5.57;2.40;;;;;;;13.21;63.29;102310.13;5159972;28;20052;-86
2023/05/26 08:13:10;;;;;;;3.83;1.63;;;;;;;13.20;63.04;102313.66;5158390;28;20034;-86
2023/05/26 08:16:00;;;;;;;1.48;1.35;;;;;;;13.02;63.34;102313.00;5145928;28;20030;-87
2023/05/26 08:18:51;;;;;;;1.20;1.20;;;;;;;13.23;62.38;102314.50;5150772;28;20269;-86
2023/05/26 08:21:42;;;;;;;2.50;1.95;;;;;;;13.44;61.84;102316.91;5160869;28;20045;-85
2023/05/26 08:24:32;;;;;;;1.33;1.23;;;;;;;13.37;62.42;102308.16;5159745;28;20038;-86
2023/05/26 08:27:24;;;;;;;1.13;1.02;;;;;;;13.42;62.90;102311.66;5157380;28;20046;-83
2023/05/26 08:30:15;;;;;;;1.48;0.60;;;;;;;13.47;62.30;102304.53;5161014;28;20028;-83
2023/05/26 08:33:06;;;;;;;14.07;4.05;;;;;;;13.51;62.01;102306.22;5153550;28;20121;-84
2023/05/26 08:35:56;;;;;;;7.22;2.33;;;;;;;13.46;62.92;102309.84;5157653;28;20030;-86
2023/05/26 08:38:47;;;;;;;5.05;2.25;;;;;;;13.55;62.77;102312.34;5164699;28;20026;-85
2023/05/26 08:41:51;;;;;;;0.80;0.80;;;;;;;13.37;62.87;102308.16;5154545;28;20030;-85
2023/05/26 08:44:43;;;;;;;1.08;1.08;;;;;;;13.59;62.12;102305.28;5156517;28;20034;-85
2023/05/26 08:47:35;;;;;;;1.70;1.08;;;;;;;13.60;62.28;102306.97;5159793;28;20474;-86
2023/05/26 08:50:29;;;;;;;1.80;1.60;;;;;;;13.68;62.15;102298.09;5153012;28;20053;-86
2023/05/26 08:53:23;;;;;;;8.73;0.88;;;;;;;13.79;61.60;102300.56;5149133;28;20045;-86
2023/05/26 08:56:13;;;;;;;1.13;1.13;;;;;;;13.66;62.86;102296.38;5162073;28;20061;-85
2023/05/26 08:59:08;;;;;;;5.07;1.92;;;;;;;13.79;62.58;102295.28;5163678;28;20033;-85
2023/05/26 09:02:00;;;;;;;0.75;0.75;;;;;;;13.85;61.91;102297.81;5164239;28;20238;-86
2023/05/26 09:04:51;;;;;;;4.10;1.35;;;;;;;13.84;62.21;102293.44;5167726;28;20033;-86
2023/05/26 09:07:42;;;;;;;2.00;1.85;;;;;;;13.93;61.71;102295.06;5147857;28;20658;-85
2023/05/26 09:10:33;;;;;;;5.10;1.98;;;;;;;14.04;61.20;102299.31;5187843;28;20029;-85
2023/05/26 09:13:23;;;;;;;2.38;1.67;;;;;;;14.12;60.58;102293.00;5157976;28;20030;-85
2023/05/26 09:16:14;;;;;;;1.08;1.08;;;;;;;14.13;60.55;102292.09;5158886;28;20065;-85
2023/05/26 09:19:07;;;;;;;3.10;1.65;;;;;;;14.16;61.67;102292.06;5144796;28;20030;-86
2023/05/26 09:22:05;;;;;;;1.05;1.05;;;;;;;14.21;60.78;102306.94;5150126;28;20495;-87
2023/05/26 09:24:56;;;;;;;0.85;0.70;;;;;;;14.20;60.82;102310.47;5125384;28;20026;-85
2023/05/26 09:27:47;;;;;;;0.57;0.57;;;;;;;14.19;60.81;102306.06;5152882;28;20109;-86
2023/05/26 09:30:45;;;;;;;1.40;1.23;;;;;;;14.40;60.61;102308.38;5164221;28;20084;-84
2023/05/26 09:33:44;;;;;;;4.57;1.17;;;;;;;14.47;61.05;102307.34;5168054;28;20022;-86
2023/05/26 09:36:36;;;;;;;0.85;0.85;;;;;;;14.48;61.05;102300.28;5184921;28;20057;-86
2023/05/26 09:39:32;;;;;;;0.40;0.40;;;;;;;14.62;60.46;102302.69;5148606;28;20149;-85
2023/05/26 09:42:22;;;;;;;1.00;0.93;;;;;;;14.70;60.71;102314.00;5140912;28;20074;-85
2023/05/26 09:45:14;;;;;;;9.40;0.85;;;;;;;14.79;60.03;102303.25;5155343;28;20030;-86
2023/05/26 09:48:07;;;;;;;4.22;1.65;;;;;;;14.86;60.56;102309.31;5152756;28;20066;-85
2023/05/26 09:50:58;;;;;;;1.50;0.60;;;;;;;14.81;59.08;102290.00;5155127;28;20193;-86
2023/05/26 09:53:49;;;;;;;14.20;2.83;;;;;;;14.87;58.81;102296.94;5141352;28;20057;-86
2023/05/26 09:57:03;;;;;;;0.70;0.60;;;;;;;15.02;59.62;102301.06;5170938;28;20134;-86
2023/05/26 09:59:56;;;;;;;5.38;1.92;;;;;;;15.09;58.71;102298.25;5162489;28;20048;-87
2023/05/26 10:02:47;;;;;;;6.88;1.20;;;;;;;15.09;58.87;102292.97;5171627;28;20059;-85
2023/05/26 10:05:44;;;;;;;0.60;0.60;;;;;;;15.25;59.16;102287.34;5154007;28;20038;-86
2023/05/26 10:08:36;;;;;;;1.85;1.75;;;;;;;15.31;57.76;102286.34;5163504;28;20038;-86
2023/05/26 10:11:29;;;;;;;0.85;0.85;;;;;;;15.31;58.50;102284.59;5159389;28;20085;-87
2023/05/26 10:14:20;;;;;;;1.58;1.30;;;;;;;15.41;58.44;102287.88;5134972;28;20034;-86
2023/05/26 10:17:11;;;;;;;0.85;0.85;;;;;;;15.44;58.42;102287.81;5163972;28;20089;-86
2023/05/26 10:20:04;;;;;;;2.83;1.33;;;;;;;15.33;57.73;102285.41;5148885;28;20539;-86
2023/05/26 10:23:03;;;;;;;2.63;2.43;;;;;;;15.53;57.84;102277.03;5149534;28;20276;-86
2023/05/26 10:26:03;;;;;;;2.28;1.70;;;;;;;15.65;57.64;102281.19;5149086;28;20312;-88
2023/05/26 10:29:03;;;;;;;2.05;1.95;;;;;;;15.71;56.91;102285.44;5160866;28;20049;-85
2023/05/26 10:31:54;;;;;;;1.13;1.02;;;;;;;15.68;56.83;102277.59;5171021;28;20036;-87
2023/05/26 10:34:49;;;;;;;3.58;1.77;;;;;;;15.81;56.60;102276.38;5167824;28;20030;-85
2023/05/26 10:37:45;;;;;;;1.15;1.10;;;;;;;15.87;56.05;102278.88;5152931;28;20194;-85
2023/05/26 10:40:37;;;;;;;4.00;2.03;;;;;;;15.95;56.72;102277.84;5165951;28;20043;-85
2023/05/26 10:43:28;;;;;;;1.13;1.13;;;;;;;16.06;57.50;102270.50;5189682;28;20535;-86
2023/05/26 10:46:19;;;;;;;1.60;1.08;;;;;;;16.14;56.15;102262.38;5146467;28;20325;-87
2023/05/26 10:49:20;;;;;;;0.70;0.70;;;;;;;16.11;55.74;102268.63;5163919;28;20125;-86
2023/05/26 10:52:13;;;;;;;1.35;1.27;;;;;;;16.20;55.74;102265.72;5161985;28;20038;-87
2023/05/26 10:55:04;;;;;;;8.43;1.15;;;;;;;16.29;56.44;102266.38;5160163;28;20034;-87
2023/05/26 10:58:27;;;;;;;6.40;3.08;;;;;;;16.38;54.97;102260.84;5148819;28;20731;-87
2023/05/26 11:01:27;;;;;;;25.65;3.75;;;;;;;16.44;55.08;102263.34;5155939;28;20557;-87
2023/05/26 11:04:21;;;;;;;6.28;3.00;;;;;;;16.56;54.57;102259.47;5151362;28;20549;-87
2023/05/26 11:07:16;;;;;;;5.07;1.73;;;;;;;16.58;54.36;102262.09;5181370;28;20556;-87
2023/05/26 11:10:08;;;;;;;0.45;0.45;;;;;;;16.69;54.72;102262.66;5151351;28;20030;-86
2023/05/26 11:12:59;;;;;;;0.73;0.73;;;;;;;16.76;54.55;102256.28;5163913;28;20101;-87
2023/05/26 11:16:10;;;;;;;2.83;1.45;;;;;;;16.83;53.98;102249.88;5154502;28;20049;-87
2023/05/26 11:19:04;;;;;;;0.50;0.50;;;;;;;16.91;54.03;102249.63;5157183;28;20048;-87
2023/05/26 11:21:55;;;;;;;1.17;1.05;;;;;;;16.94;52.99;102249.59;5152198;28;20034;-86
2023/05/26 11:24:47;;;;;;;4.38;2.28;;;;;;;16.99;52.84;102250.31;5156212;28;20058;-87
2023/05/26 11:27:45;;;;;;;1.52;1.42;;;;;;;17.03;53.38;102236.97;5169448;28;20042;-87
2023/05/26 11:30:36;;;;;;;4.95;1.85;;;;;;;17.08;54.46;102241.22;5153223;28;20026;-87
2023/05/26 11:33:27;;;;;;;1.63;1.52;;;;;;;17.12;52.68;102236.69;5164034;28;20271;-86
2023/05/26 11:36:19;;;;;;;1.75;1.65;;;;;;;17.17;52.56;102245.38;5167642;28;20103;-87
2023/05/26 11:39:09;;;;;;;1.63;1.05;;;;;;;17.28;52.84;102237.97;5174430;28;20094;-87
2023/05/26 11:42:10;;;;;;;8.15;1.98;;;;;;;17.46;52.99;102236.50;5170930;28;20038;-87
2023/05/26 11:45:03;;;;;;;5.13;1.38;;;;;;;17.50;51.63;102244.38;5174627;28;20097;-88
2023/05/26 11:47:54;;;;;;;1.42;1.33;;;;;;;17.49;51.59;102247.94;5184818;28;20136;-87
2023/05/26 11:50:45;;;;;;;1.75;1.38;;;;;;;17.64;51.44;102242.13;5154361;28;20036;-87
2023/05/26 11:53:37;;;;;;;1.88;1.45;;;;;;;17.72;52.16;102237.44;5171382;28;20046;-88
2023/05/26 11:56:33;;;;;;;2.83;2.58;;;;;;;17.82;50.92;102240.66;5150439;28;20033;-87
2023/05/26 11:59:24;;;;;;;0.60;0.60;;;;;;;17.92;50.90;102227.94;5158773;28;20120;-88
2023/05/26 12:02:16;;;;;;;1.00;0.85;;;;;;;17.87;50.90;102229.88;5162994;28;20034;-87
2023/05/26 12:05:19;;;;;;;2.85;1.50;;;;;;;18.09;51.56;102224.72;5155249;28;20421;-88
2023/05/26 12:08:10;;;;;;;6.72;1.73;;;;;;;18.36;50.73;102227.34;5167376;28;20120;-87
2023/05/26 12:11:11;;;;;;;1.73;1.63;;;;;;;18.13;50.10;102225.50;5176036;28;20045;-88
2023/05/26 12:14:04;;;;;;;5.35;2.17;;;;;;;18.22;50.11;102226.03;5185938;28;20054;-88
2023/05/26 12:16:56;;;;;;;1.92;1.33;;;;;;;18.21;49.91;102228.75;5167179;28;20255;-88
2023/05/26 12:19:46;;;;;;;1.02;1.00;;;;;;;18.46;48.77;102222.53;5168570;28;20026;-87
2023/05/26 12:22:37;;;;;;;3.55;1.25;;;;;;;18.46;49.29;102218.13;5153262;28;20053;-88
2023/05/26 12:25:30;;;;;;;3.60;1.35;;;;;;;18.46;48.57;102226.09;5163150;28;20442;-87
2023/05/26 12:28:21;;;;;;;0.77;0.77;;;;;;;18.62;49.19;102214.88;5155477;28;20030;-87
2023/05/26 12:31:12;;;;;;;6.82;0.77;;;;;;;18.53;48.21;102227.59;5163359;28;20082;-85
2023/05/26 12:34:03;;;;;;;0.30;0.30;;;;;;;18.54;48.51;102216.03;5184068;28;20022;-85
2023/05/26 12:36:54;;;;;;;0.75;0.75;;;;;;;18.73;48.01;102215.34;5162289;28;20030;-85
2023/05/26 12:39:45;;;;;;;3.38;1.38;;;;;;;18.61;48.67;102210.50;5171578;28;20027;-85
2023/05/26 12:42:37;;;;;;;11.68;0.85;;;;;;;18.62;47.60;102212.22;5159184;28;20450;-86
2023/05/26 12:45:28;;;;;;;0.40;0.40;;;;;;;18.87;47.49;102210.38;5160569;28;20050;-87
2023/05/26 12:48:19;;;;;;;1.00;1.00;;;;;;;19.09;47.04;102212.22;5177780;28;20034;-87
2023/05/26 12:51:11;;;;;;;0.52;0.52;;;;;;;19.13;47.61;102202.31;5183478;28;20033;-85
2023/05/26 12:54:02;;;;;;;7.97;1.45;;;;;;;19.17;47.42;102198.63;5182069;28;20018;-87
2023/05/26 12:56:52;;;;;;;0.50;0.50;;;;;;;19.33;47.55;102201.53;5175170;28;20026;-86
2023/05/26 12:59:43;;;;;;;1.65;1.40;;;;;;;19.04;46.56;102198.25;5178805;28;20021;-87
2023/05/26 13:02:36;;;;;;;2.05;0.65;;;;;;;19.50;47.09;102191.06;5180913;28;20064;-87
2023/05/26 13:05:27;;;;;;;3.20;2.00;;;;;;;19.45;46.48;102193.06;5166262;28;20045;-86
2023/05/26 13:08:19;;;;;;;4.97;0.70;;;;;;;19.45;46.29;102206.38;5169404;28;20030;-88
2023/05/26 13:11:10;;;;;;;2.00;0.95;;;;;;;19.43;46.39;102191.38;5166845;28;20033;-86
2023/05/26 13:14:01;;;;;;;9.27;2.22;;;;;;;19.60;45.78;102182.69;5153736;28;20025;-88
2023/05/26 13:16:52;;;;;;;4.28;1.58;;;;;;;19.53;46.93;102186.53;5181409;28;20040;-88
2023/05/26 13:19:43;;;;;;;9.07;2.30;;;;;;;19.67;45.69;102198.31;5146824;28;20092;-87